sensor_id;sensor_type;location;lat;lon;timestamp;P1;durP1;ratioP1;P2;durP2;ratioP2
9745;SDS011;4912;50.836;12.958;2023-01-28T00:01:35;29.27;;;14.90;;
9745;SDS011;4912;50.836;12.958;2023-01-28T00:04:08;28.77;;;14.70;;
9745;SDS011;4912;50.836;12.958;2023-01-28T00:06:40;25.90;;;14.00;;
9745;SDS011;4912;50.836;12.958;2023-01-28T00:09:10;29.45;;;14.52;;
9745;SDS011;4912;50.836;12.958;2023-01-28T00:11:41;27.57;;;13.97;;
9745;SDS011;4912;50.836;12.958;2023-01-28T00:14:14;26.53;;;14.30;;
9745;SDS011;4912;50.836;12.958;2023-01-28T00:16:44;28.07;;;14.37;;
9745;SDS011;4912;50.836;12.958;2023-01-28T00:19:14;30.50;;;14.70;;
9745;SDS011;4912;50.836;12.958;2023-01-28T00:21:45;27.60;;;14.60;;
9745;SDS011;4912;50.836;12.958;2023-01-28T00:24:15;28.97;;;15.00;;
9745;SDS011;4912;50.836;12.958;2023-01-28T00:26:45;26.00;;;13.20;;
9745;SDS011;4912;50.836;12.958;2023-01-28T00:31:49;25.60;;;12.83;;
9745;SDS011;4912;50.836;12.958;2023-01-28T00:34:20;32.20;;;14.88;;
9745;SDS011;4912;50.836;12.958;2023-01-28T00:36:50;29.90;;;14.60;;
9745;SDS011;4912;50.836;12.958;2023-01-28T00:39:23;28.57;;;14.67;;
9745;SDS011;4912;50.836;12.958;2023-01-28T00:41:54;28.25;;;14.35;;
9745;SDS011;4912;50.836;12.958;2023-01-28T00:44:27;24.20;;;13.57;;
9745;SDS011;4912;50.836;12.958;2023-01-28T00:46:57;28.17;;;14.27;;
9745;SDS011;4912;50.836;12.958;2023-01-28T00:49:28;31.80;;;14.40;;
9745;SDS011;4912;50.836;12.958;2023-01-28T00:52:00;23.53;;;11.73;;
9745;SDS011;4912;50.836;12.958;2023-01-28T00:54:31;18.93;;;9.53;;
9745;SDS011;4912;50.836;12.958;2023-01-28T00:57:02;15.90;;;8.20;;
9745;SDS011;4912;50.836;12.958;2023-01-28T00:59:36;11.27;;;7.40;;
9745;SDS011;4912;50.836;12.958;2023-01-28T01:02:06;11.80;;;7.00;;
9745;SDS011;4912;50.836;12.958;2023-01-28T01:04:40;14.00;;;6.87;;
9745;SDS011;4912;50.836;12.958;2023-01-28T01:07:21;11.47;;;6.97;;
9745;SDS011;4912;50.836;12.958;2023-01-28T01:09:58;14.57;;;7.13;;
9745;SDS011;4912;50.836;12.958;2023-01-28T01:12:28;13.85;;;8.20;;
9745;SDS011;4912;50.836;12.958;2023-01-28T01:15:03;11.27;;;7.53;;
9745;SDS011;4912;50.836;12.958;2023-01-28T01:17:36;13.73;;;7.63;;
9745;SDS011;4912;50.836;12.958;2023-01-28T01:20:09;13.65;;;8.52;;
9745;SDS011;4912;50.836;12.958;2023-01-28T01:22:44;14.77;;;8.67;;
9745;SDS011;4912;50.836;12.958;2023-01-28T01:25:15;14.02;;;8.30;;
9745;SDS011;4912;50.836;12.958;2023-01-28T01:27:47;14.77;;;8.30;;
9745;SDS011;4912;50.836;12.958;2023-01-28T01:30:21;16.10;;;9.43;;
9745;SDS011;4912;50.836;12.958;2023-01-28T01:32:51;17.07;;;8.87;;
9745;SDS011;4912;50.836;12.958;2023-01-28T01:35:22;15.53;;;8.87;;
9745;SDS011;4912;50.836;12.958;2023-01-28T01:37:52;18.38;;;9.45;;
9745;SDS011;4912;50.836;12.958;2023-01-28T01:40:23;18.33;;;9.90;;
9745;SDS011;4912;50.836;12.958;2023-01-28T01:42:55;19.27;;;8.90;;
9745;SDS011;4912;50.836;12.958;2023-01-28T01:45:28;16.52;;;9.20;;
9745;SDS011;4912;50.836;12.958;2023-01-28T01:48:04;19.57;;;9.63;;
9745;SDS011;4912;50.836;12.958;2023-01-28T01:50:46;16.60;;;9.67;;
9745;SDS011;4912;50.836;12.958;2023-01-28T01:53:23;17.07;;;9.77;;
9745;SDS011;4912;50.836;12.958;2023-01-28T01:55:57;15.93;;;8.77;;
9745;SDS011;4912;50.836;12.958;2023-01-28T01:58:33;17.47;;;9.17;;
9745;SDS011;4912;50.836;12.958;2023-01-28T02:01:10;18.40;;;9.00;;
9745;SDS011;4912;50.836;12.958;2023-01-28T02:03:42;18.90;;;9.20;;
9745;SDS011;4912;50.836;12.958;2023-01-28T02:06:22;18.33;;;9.43;;
9745;SDS011;4912;50.836;12.958;2023-01-28T02:08:53;18.83;;;8.68;;
9745;SDS011;4912;50.836;12.958;2023-01-28T02:13:59;15.80;;;8.63;;
9745;SDS011;4912;50.836;12.958;2023-01-28T02:16:36;20.17;;;9.43;;
9745;SDS011;4912;50.836;12.958;2023-01-28T02:19:06;21.67;;;9.87;;
9745;SDS011;4912;50.836;12.958;2023-01-28T02:21:50;15.60;;;8.73;;
9745;SDS011;4912;50.836;12.958;2023-01-28T02:24:42;17.33;;;9.30;;
9745;SDS011;4912;50.836;12.958;2023-01-28T02:27:57;19.25;;;10.50;;
9745;SDS011;4912;50.836;12.958;2023-01-28T02:30:50;16.77;;;8.93;;
9745;SDS011;4912;50.836;12.958;2023-01-28T02:33:26;18.03;;;9.80;;
9745;SDS011;4912;50.836;12.958;2023-01-28T02:36:07;18.07;;;10.27;;
9745;SDS011;4912;50.836;12.958;2023-01-28T02:38:47;18.30;;;10.07;;
9745;SDS011;4912;50.836;12.958;2023-01-28T02:41:21;21.20;;;10.57;;
9745;SDS011;4912;50.836;12.958;2023-01-28T02:44:00;19.67;;;9.40;;
9745;SDS011;4912;50.836;12.958;2023-01-28T02:46:33;18.20;;;9.53;;
9745;SDS011;4912;50.836;12.958;2023-01-28T02:49:19;17.97;;;9.17;;
9745;SDS011;4912;50.836;12.958;2023-01-28T02:52:09;15.33;;;9.23;;
9745;SDS011;4912;50.836;12.958;2023-01-28T02:55:17;16.60;;;9.93;;
9745;SDS011;4912;50.836;12.958;2023-01-28T02:57:58;14.52;;;8.68;;
9745;SDS011;4912;50.836;12.958;2023-01-28T03:00:42;18.75;;;8.60;;
9745;SDS011;4912;50.836;12.958;2023-01-28T03:03:21;14.20;;;8.90;;
9745;SDS011;4912;50.836;12.958;2023-01-28T03:05:57;13.93;;;8.07;;
9745;SDS011;4912;50.836;12.958;2023-01-28T03:08:36;14.80;;;8.40;;
9745;SDS011;4912;50.836;12.958;2023-01-28T03:11:25;33.50;;;18.87;;
9745;SDS011;4912;50.836;12.958;2023-01-28T03:14:14;17.47;;;9.33;;
9745;SDS011;4912;50.836;12.958;2023-01-28T03:17:02;15.57;;;8.27;;
9745;SDS011;4912;50.836;12.958;2023-01-28T03:19:46;14.10;;;8.20;;
9745;SDS011;4912;50.836;12.958;2023-01-28T03:22:30;16.23;;;8.97;;
9745;SDS011;4912;50.836;12.958;2023-01-28T03:25:16;14.13;;;8.77;;
9745;SDS011;4912;50.836;12.958;2023-01-28T03:28:04;14.17;;;8.67;;
9745;SDS011;4912;50.836;12.958;2023-01-28T03:30:55;15.90;;;8.73;;
9745;SDS011;4912;50.836;12.958;2023-01-28T03:33:50;32.70;;;18.50;;
9745;SDS011;4912;50.836;12.958;2023-01-28T03:36:35;22.37;;;13.90;;
9745;SDS011;4912;50.836;12.958;2023-01-28T03:39:44;19.87;;;11.00;;
9745;SDS011;4912;50.836;12.958;2023-01-28T03:42:15;17.47;;;9.77;;
9745;SDS011;4912;50.836;12.958;2023-01-28T03:45:13;19.63;;;9.63;;
9745;SDS011;4912;50.836;12.958;2023-01-28T03:47:45;19.93;;;9.97;;
9745;SDS011;4912;50.836;12.958;2023-01-28T03:50:18;16.50;;;9.13;;
9745;SDS011;4912;50.836;12.958;2023-01-28T03:52:56;16.87;;;7.93;;
9745;SDS011;4912;50.836;12.958;2023-01-28T03:55:47;12.83;;;8.37;;
9745;SDS011;4912;50.836;12.958;2023-01-28T03:58:19;12.50;;;7.87;;
9745;SDS011;4912;50.836;12.958;2023-01-28T04:00:53;16.27;;;7.97;;
9745;SDS011;4912;50.836;12.958;2023-01-28T04:03:25;13.03;;;7.60;;
9745;SDS011;4912;50.836;12.958;2023-01-28T04:06:01;13.17;;;7.60;;
9745;SDS011;4912;50.836;12.958;2023-01-28T04:08:52;13.03;;;7.93;;
9745;SDS011;4912;50.836;12.958;2023-01-28T04:11:39;15.80;;;7.30;;
9745;SDS011;4912;50.836;12.958;2023-01-28T04:14:13;12.00;;;6.50;;
9745;SDS011;4912;50.836;12.958;2023-01-28T04:16:49;23.20;;;11.97;;
9745;SDS011;4912;50.836;12.958;2023-01-28T04:19:22;14.00;;;7.37;;
9745;SDS011;4912;50.836;12.958;2023-01-28T04:21:57;16.10;;;7.07;;
9745;SDS011;4912;50.836;12.958;2023-01-28T04:24:30;12.07;;;6.17;;
9745;SDS011;4912;50.836;12.958;2023-01-28T04:27:02;14.57;;;6.45;;
9745;SDS011;4912;50.836;12.958;2023-01-28T04:29:32;12.52;;;5.65;;
9745;SDS011;4912;50.836;12.958;2023-01-28T04:32:21;11.77;;;6.60;;
9745;SDS011;4912;50.836;12.958;2023-01-28T04:35:05;12.93;;;6.23;;
9745;SDS011;4912;50.836;12.958;2023-01-28T04:37:51;13.03;;;6.20;;
9745;SDS011;4912;50.836;12.958;2023-01-28T04:40:47;10.80;;;6.37;;
9745;SDS011;4912;50.836;12.958;2023-01-28T04:43:27;10.90;;;6.77;;
9745;SDS011;4912;50.836;12.958;2023-01-28T04:46:18;9.37;;;5.87;;
9745;SDS011;4912;50.836;12.958;2023-01-28T04:48:58;11.27;;;5.97;;
9745;SDS011;4912;50.836;12.958;2023-01-28T04:51:45;12.60;;;5.60;;
9745;SDS011;4912;50.836;12.958;2023-01-28T04:54:37;8.67;;;5.37;;
9745;SDS011;4912;50.836;12.958;2023-01-28T04:57:08;11.97;;;5.87;;
9745;SDS011;4912;50.836;12.958;2023-01-28T04:59:38;13.30;;;5.47;;
9745;SDS011;4912;50.836;12.958;2023-01-28T05:02:08;13.30;;;5.53;;
9745;SDS011;4912;50.836;12.958;2023-01-28T05:04:41;9.13;;;5.37;;
9745;SDS011;4912;50.836;12.958;2023-01-28T05:07:23;14.77;;;5.67;;
9745;SDS011;4912;50.836;12.958;2023-01-28T05:09:56;9.70;;;5.27;;
9745;SDS011;4912;50.836;12.958;2023-01-28T05:12:28;11.30;;;5.97;;
9745;SDS011;4912;50.836;12.958;2023-01-28T05:15:03;8.47;;;4.87;;
9745;SDS011;4912;50.836;12.958;2023-01-28T05:17:36;11.63;;;5.80;;
9745;SDS011;4912;50.836;12.958;2023-01-28T05:20:11;11.30;;;5.67;;
9745;SDS011;4912;50.836;12.958;2023-01-28T05:22:47;9.20;;;5.60;;
9745;SDS011;4912;50.836;12.958;2023-01-28T05:25:23;10.60;;;5.30;;
9745;SDS011;4912;50.836;12.958;2023-01-28T05:27:53;11.77;;;4.90;;
9745;SDS011;4912;50.836;12.958;2023-01-28T05:30:24;9.55;;;4.95;;
9745;SDS011;4912;50.836;12.958;2023-01-28T05:32:55;9.48;;;5.28;;
9745;SDS011;4912;50.836;12.958;2023-01-28T05:35:26;9.40;;;4.80;;
9745;SDS011;4912;50.836;12.958;2023-01-28T05:37:56;9.00;;;4.43;;
9745;SDS011;4912;50.836;12.958;2023-01-28T05:40:29;11.37;;;4.70;;
9745;SDS011;4912;50.836;12.958;2023-01-28T05:42:59;11.37;;;4.83;;
9745;SDS011;4912;50.836;12.958;2023-01-28T05:45:37;10.47;;;4.37;;
9745;SDS011;4912;50.836;12.958;2023-01-28T05:48:15;7.77;;;4.00;;
9745;SDS011;4912;50.836;12.958;2023-01-28T05:51:14;12.57;;;4.57;;
9745;SDS011;4912;50.836;12.958;2023-01-28T05:53:52;7.80;;;3.90;;
9745;SDS011;4912;50.836;12.958;2023-01-28T05:56:25;7.80;;;4.30;;
9745;SDS011;4912;50.836;12.958;2023-01-28T05:58:55;8.07;;;4.40;;
9745;SDS011;4912;50.836;12.958;2023-01-28T06:01:26;19.30;;;8.43;;
9745;SDS011;4912;50.836;12.958;2023-01-28T06:03:57;18.50;;;7.90;;
9745;SDS011;4912;50.836;12.958;2023-01-28T06:11:33;11.73;;;4.70;;
9745;SDS011;4912;50.836;12.958;2023-01-28T06:14:04;8.33;;;4.50;;
9745;SDS011;4912;50.836;12.958;2023-01-28T06:16:49;7.63;;;4.30;;
9745;SDS011;4912;50.836;12.958;2023-01-28T06:19:25;11.07;;;5.30;;
9745;SDS011;4912;50.836;12.958;2023-01-28T06:21:55;14.83;;;6.30;;
9745;SDS011;4912;50.836;12.958;2023-01-28T06:24:26;13.93;;;5.82;;
9745;SDS011;4912;50.836;12.958;2023-01-28T06:26:59;8.50;;;5.03;;
9745;SDS011;4912;50.836;12.958;2023-01-28T06:29:29;9.73;;;5.10;;
9745;SDS011;4912;50.836;12.958;2023-01-28T06:31:59;12.50;;;5.97;;
9745;SDS011;4912;50.836;12.958;2023-01-28T06:34:33;9.07;;;5.00;;
9745;SDS011;4912;50.836;12.958;2023-01-28T06:37:04;10.95;;;5.80;;
9745;SDS011;4912;50.836;12.958;2023-01-28T06:39:34;11.13;;;5.40;;
9745;SDS011;4912;50.836;12.958;2023-01-28T06:42:07;7.97;;;4.57;;
9745;SDS011;4912;50.836;12.958;2023-01-28T06:44:38;11.43;;;4.60;;
9745;SDS011;4912;50.836;12.958;2023-01-28T06:47:08;9.90;;;5.20;;
9745;SDS011;4912;50.836;12.958;2023-01-28T06:49:40;10.27;;;4.67;;
9745;SDS011;4912;50.836;12.958;2023-01-28T06:52:10;8.33;;;4.63;;
9745;SDS011;4912;50.836;12.958;2023-01-28T06:54:41;8.70;;;4.37;;
9745;SDS011;4912;50.836;12.958;2023-01-28T06:57:14;14.63;;;5.20;;
9745;SDS011;4912;50.836;12.958;2023-01-28T06:59:44;9.83;;;4.10;;
9745;SDS011;4912;50.836;12.958;2023-01-28T07:02:15;7.90;;;4.33;;
9745;SDS011;4912;50.836;12.958;2023-01-28T07:04:45;6.83;;;4.00;;
9745;SDS011;4912;50.836;12.958;2023-01-28T07:07:15;11.70;;;5.67;;
9745;SDS011;4912;50.836;12.958;2023-01-28T07:09:46;8.35;;;4.30;;
9745;SDS011;4912;50.836;12.958;2023-01-28T07:12:19;9.53;;;4.67;;
9745;SDS011;4912;50.836;12.958;2023-01-28T07:14:49;6.87;;;3.87;;
9745;SDS011;4912;50.836;12.958;2023-01-28T07:17:20;9.23;;;4.67;;
9745;SDS011;4912;50.836;12.958;2023-01-28T07:19:50;8.47;;;4.23;;
9745;SDS011;4912;50.836;12.958;2023-01-28T07:22:21;10.80;;;4.57;;
9745;SDS011;4912;50.836;12.958;2023-01-28T07:24:51;9.17;;;4.10;;
9745;SDS011;4912;50.836;12.958;2023-01-28T07:27:24;8.37;;;4.20;;
9745;SDS011;4912;50.836;12.958;2023-01-28T07:29:57;10.00;;;4.40;;
9745;SDS011;4912;50.836;12.958;2023-01-28T07:32:29;10.75;;;4.32;;
9745;SDS011;4912;50.836;12.958;2023-01-28T07:34:59;7.87;;;4.20;;
9745;SDS011;4912;50.836;12.958;2023-01-28T07:37:30;7.40;;;4.10;;
9745;SDS011;4912;50.836;12.958;2023-01-28T07:40:00;7.50;;;3.70;;
9745;SDS011;4912;50.836;12.958;2023-01-28T07:42:34;8.25;;;4.07;;
9745;SDS011;4912;50.836;12.958;2023-01-28T07:45:05;8.33;;;4.07;;
9745;SDS011;4912;50.836;12.958;2023-01-28T07:47:37;8.20;;;4.07;;
9745;SDS011;4912;50.836;12.958;2023-01-28T07:50:08;8.60;;;3.97;;
9745;SDS011;4912;50.836;12.958;2023-01-28T07:52:41;9.27;;;4.30;;
9745;SDS011;4912;50.836;12.958;2023-01-28T07:55:12;5.97;;;3.92;;
9745;SDS011;4912;50.836;12.958;2023-01-28T07:57:50;9.73;;;4.63;;
9745;SDS011;4912;50.836;12.958;2023-01-28T08:00:22;9.67;;;4.70;;
9745;SDS011;4912;50.836;12.958;2023-01-28T08:02:54;11.30;;;4.43;;
9745;SDS011;4912;50.836;12.958;2023-01-28T08:05:26;7.73;;;4.40;;
9745;SDS011;4912;50.836;12.958;2023-01-28T08:08:07;11.97;;;5.07;;
9745;SDS011;4912;50.836;12.958;2023-01-28T08:10:38;7.57;;;4.25;;
9745;SDS011;4912;50.836;12.958;2023-01-28T08:13:18;8.73;;;3.83;;
9745;SDS011;4912;50.836;12.958;2023-01-28T08:15:48;7.00;;;3.63;;
9745;SDS011;4912;50.836;12.958;2023-01-28T08:18:23;9.63;;;4.60;;
9745;SDS011;4912;50.836;12.958;2023-01-28T08:20:54;9.20;;;3.10;;
9745;SDS011;4912;50.836;12.958;2023-01-28T08:23:25;5.80;;;3.17;;
9745;SDS011;4912;50.836;12.958;2023-01-28T08:25:56;9.47;;;2.87;;
9745;SDS011;4912;50.836;12.958;2023-01-28T08:28:30;5.15;;;3.30;;
9745;SDS011;4912;50.836;12.958;2023-01-28T08:31:01;9.03;;;3.10;;
9745;SDS011;4912;50.836;12.958;2023-01-28T08:33:33;5.20;;;2.55;;
9745;SDS011;4912;50.836;12.958;2023-01-28T08:36:04;7.70;;;3.23;;
9745;SDS011;4912;50.836;12.958;2023-01-28T08:38:35;4.77;;;2.60;;
9745;SDS011;4912;50.836;12.958;2023-01-28T08:41:06;7.13;;;2.53;;
9745;SDS011;4912;50.836;12.958;2023-01-28T08:43:39;5.80;;;3.20;;
9745;SDS011;4912;50.836;12.958;2023-01-28T08:46:09;6.03;;;2.90;;
9745;SDS011;4912;50.836;12.958;2023-01-28T08:48:39;5.67;;;3.30;;
9745;SDS011;4912;50.836;12.958;2023-01-28T08:51:10;7.23;;;3.40;;
9745;SDS011;4912;50.836;12.958;2023-01-28T08:53:40;7.47;;;3.13;;
9745;SDS011;4912;50.836;12.958;2023-01-28T08:56:10;11.63;;;5.10;;
9745;SDS011;4912;50.836;12.958;2023-01-28T08:58:44;11.43;;;4.10;;
9745;SDS011;4912;50.836;12.958;2023-01-28T09:01:15;7.60;;;3.93;;
9745;SDS011;4912;50.836;12.958;2023-01-28T09:03:45;7.47;;;4.30;;
9745;SDS011;4912;50.836;12.958;2023-01-28T09:06:15;6.57;;;3.50;;
9745;SDS011;4912;50.836;12.958;2023-01-28T09:08:46;7.07;;;4.10;;
9745;SDS011;4912;50.836;12.958;2023-01-28T09:11:16;6.53;;;3.80;;
9745;SDS011;4912;50.836;12.958;2023-01-28T09:13:49;11.50;;;4.17;;
9745;SDS011;4912;50.836;12.958;2023-01-28T09:16:19;7.43;;;3.77;;
9745;SDS011;4912;50.836;12.958;2023-01-28T09:18:50;7.27;;;3.43;;
9745;SDS011;4912;50.836;12.958;2023-01-28T09:21:20;7.53;;;4.15;;
9745;SDS011;4912;50.836;12.958;2023-01-28T09:23:51;8.23;;;3.47;;
9745;SDS011;4912;50.836;12.958;2023-01-28T09:28:55;6.80;;;3.90;;
9745;SDS011;4912;50.836;12.958;2023-01-28T09:31:25;8.37;;;4.40;;
9745;SDS011;4912;50.836;12.958;2023-01-28T09:33:56;5.87;;;2.93;;
9745;SDS011;4912;50.836;12.958;2023-01-28T09:36:26;6.53;;;3.67;;
9745;SDS011;4912;50.836;12.958;2023-01-28T09:38:56;6.07;;;3.43;;
9745;SDS011;4912;50.836;12.958;2023-01-28T09:41:28;6.68;;;3.47;;
9745;SDS011;4912;50.836;12.958;2023-01-28T09:44:19;7.47;;;3.23;;
9745;SDS011;4912;50.836;12.958;2023-01-28T09:47:02;9.10;;;4.07;;
9745;SDS011;4912;50.836;12.958;2023-01-28T09:49:39;7.90;;;3.93;;
9745;SDS011;4912;50.836;12.958;2023-01-28T09:52:16;9.87;;;4.13;;
9745;SDS011;4912;50.836;12.958;2023-01-28T09:54:52;8.53;;;3.87;;
9745;SDS011;4912;50.836;12.958;2023-01-28T09:57:29;7.37;;;3.60;;
9745;SDS011;4912;50.836;12.958;2023-01-28T10:00:13;6.83;;;3.70;;
9745;SDS011;4912;50.836;12.958;2023-01-28T10:02:50;7.55;;;4.20;;
9745;SDS011;4912;50.836;12.958;2023-01-28T10:05:38;9.10;;;3.77;;
9745;SDS011;4912;50.836;12.958;2023-01-28T10:08:25;9.30;;;3.63;;
9745;SDS011;4912;50.836;12.958;2023-01-28T10:11:13;6.67;;;3.30;;
9745;SDS011;4912;50.836;12.958;2023-01-28T10:13:54;8.87;;;4.10;;
9745;SDS011;4912;50.836;12.958;2023-01-28T10:16:38;7.28;;;4.25;;
9745;SDS011;4912;50.836;12.958;2023-01-28T10:19:16;8.32;;;3.90;;
9745;SDS011;4912;50.836;12.958;2023-01-28T10:21:53;6.53;;;3.10;;
9745;SDS011;4912;50.836;12.958;2023-01-28T10:24:29;8.57;;;3.47;;
9745;SDS011;4912;50.836;12.958;2023-01-28T10:27:07;8.77;;;3.90;;
9745;SDS011;4912;50.836;12.958;2023-01-28T10:29:44;9.20;;;3.40;;
9745;SDS011;4912;50.836;12.958;2023-01-28T10:32:29;5.70;;;3.27;;
9745;SDS011;4912;50.836;12.958;2023-01-28T10:35:02;5.93;;;3.33;;
9745;SDS011;4912;50.836;12.958;2023-01-28T10:40:06;5.87;;;3.63;;
9745;SDS011;4912;50.836;12.958;2023-01-28T10:42:44;8.07;;;3.73;;
9745;SDS011;4912;50.836;12.958;2023-01-28T10:45:16;4.90;;;2.80;;
9745;SDS011;4912;50.836;12.958;2023-01-28T10:47:53;4.03;;;2.47;;
9745;SDS011;4912;50.836;12.958;2023-01-28T10:50:30;6.23;;;2.90;;
9745;SDS011;4912;50.836;12.958;2023-01-28T10:55:34;5.63;;;3.20;;
9745;SDS011;4912;50.836;12.958;2023-01-28T10:58:18;5.20;;;2.30;;
9745;SDS011;4912;50.836;12.958;2023-01-28T11:00:52;4.53;;;2.50;;
9745;SDS011;4912;50.836;12.958;2023-01-28T11:03:28;7.13;;;2.70;;
9745;SDS011;4912;50.836;12.958;2023-01-28T11:06:01;6.20;;;2.60;;
9745;SDS011;4912;50.836;12.958;2023-01-28T11:08:41;5.20;;;2.90;;
9745;SDS011;4912;50.836;12.958;2023-01-28T11:11:13;6.55;;;3.22;;
9745;SDS011;4912;50.836;12.958;2023-01-28T11:13:48;6.93;;;2.60;;
9745;SDS011;4912;50.836;12.958;2023-01-28T11:16:24;4.80;;;2.40;;
9745;SDS011;4912;50.836;12.958;2023-01-28T11:18:59;4.63;;;2.33;;
9745;SDS011;4912;50.836;12.958;2023-01-28T11:21:33;4.40;;;2.50;;
9745;SDS011;4912;50.836;12.958;2023-01-28T11:24:05;7.13;;;2.53;;
9745;SDS011;4912;50.836;12.958;2023-01-28T11:26:46;5.35;;;2.72;;
9745;SDS011;4912;50.836;12.958;2023-01-28T11:29:21;4.97;;;2.30;;
9745;SDS011;4912;50.836;12.958;2023-01-28T11:31:57;6.20;;;2.47;;
9745;SDS011;4912;50.836;12.958;2023-01-28T11:34:32;5.43;;;2.90;;
9745;SDS011;4912;50.836;12.958;2023-01-28T11:37:09;5.10;;;2.70;;
9745;SDS011;4912;50.836;12.958;2023-01-28T11:39:44;7.13;;;3.07;;
9745;SDS011;4912;50.836;12.958;2023-01-28T11:42:15;4.73;;;2.47;;
9745;SDS011;4912;50.836;12.958;2023-01-28T11:44:48;7.37;;;2.70;;
9745;SDS011;4912;50.836;12.958;2023-01-28T11:47:22;9.00;;;2.90;;
9745;SDS011;4912;50.836;12.958;2023-01-28T11:50:17;7.10;;;3.30;;
9745;SDS011;4912;50.836;12.958;2023-01-28T11:52:56;8.20;;;4.20;;
9745;SDS011;4912;50.836;12.958;2023-01-28T11:55:51;9.30;;;3.00;;
9745;SDS011;4912;50.836;12.958;2023-01-28T11:58:36;7.63;;;4.03;;
9745;SDS011;4912;50.836;12.958;2023-01-28T12:01:20;7.03;;;3.37;;
9745;SDS011;4912;50.836;12.958;2023-01-28T12:07:00;5.83;;;3.27;;
9745;SDS011;4912;50.836;12.958;2023-01-28T12:09:51;9.80;;;3.60;;
9745;SDS011;4912;50.836;12.958;2023-01-28T12:12:34;14.93;;;7.47;;
9745;SDS011;4912;50.836;12.958;2023-01-28T12:15:27;7.63;;;4.40;;
9745;SDS011;4912;50.836;12.958;2023-01-28T12:18:44;8.87;;;3.97;;
9745;SDS011;4912;50.836;12.958;2023-01-28T12:21:38;6.03;;;3.53;;
9745;SDS011;4912;50.836;12.958;2023-01-28T12:24:39;6.57;;;3.30;;
9745;SDS011;4912;50.836;12.958;2023-01-28T12:27:25;8.20;;;3.80;;
9745;SDS011;4912;50.836;12.958;2023-01-28T12:30:16;7.20;;;3.90;;
9745;SDS011;4912;50.836;12.958;2023-01-28T12:33:02;7.30;;;3.07;;
9745;SDS011;4912;50.836;12.958;2023-01-28T12:35:50;7.47;;;3.50;;
9745;SDS011;4912;50.836;12.958;2023-01-28T12:38:37;6.70;;;3.47;;
9745;SDS011;4912;50.836;12.958;2023-01-28T12:41:21;8.30;;;3.70;;
9745;SDS011;4912;50.836;12.958;2023-01-28T12:43:58;6.97;;;3.50;;
9745;SDS011;4912;50.836;12.958;2023-01-28T12:46:35;11.40;;;3.40;;
9745;SDS011;4912;50.836;12.958;2023-01-28T12:49:13;8.27;;;3.60;;
9745;SDS011;4912;50.836;12.958;2023-01-28T12:51:57;8.57;;;3.27;;
9745;SDS011;4912;50.836;12.958;2023-01-28T12:54:35;9.77;;;3.27;;
9745;SDS011;4912;50.836;12.958;2023-01-28T12:57:23;5.73;;;3.00;;
9745;SDS011;4912;50.836;12.958;2023-01-28T12:59:57;5.70;;;3.10;;
9745;SDS011;4912;50.836;12.958;2023-01-28T13:02:52;8.80;;;3.17;;
9745;SDS011;4912;50.836;12.958;2023-01-28T13:05:36;8.37;;;3.60;;
9745;SDS011;4912;50.836;12.958;2023-01-28T13:08:14;6.30;;;2.93;;
9745;SDS011;4912;50.836;12.958;2023-01-28T13:10:52;5.20;;;2.77;;
9745;SDS011;4912;50.836;12.958;2023-01-28T13:13:26;6.77;;;2.93;;
9745;SDS011;4912;50.836;12.958;2023-01-28T13:16:00;5.47;;;2.90;;
9745;SDS011;4912;50.836;12.958;2023-01-28T13:18:34;8.53;;;3.07;;
9745;SDS011;4912;50.836;12.958;2023-01-28T13:21:15;8.60;;;3.20;;
9745;SDS011;4912;50.836;12.958;2023-01-28T13:24:18;6.07;;;2.73;;
9745;SDS011;4912;50.836;12.958;2023-01-28T13:26:56;6.57;;;3.00;;
9745;SDS011;4912;50.836;12.958;2023-01-28T13:29:28;7.07;;;3.50;;
9745;SDS011;4912;50.836;12.958;2023-01-28T13:32:02;7.63;;;3.70;;
9745;SDS011;4912;50.836;12.958;2023-01-28T13:34:58;6.37;;;3.13;;
9745;SDS011;4912;50.836;12.958;2023-01-28T13:37:33;6.00;;;2.97;;
9745;SDS011;4912;50.836;12.958;2023-01-28T13:40:16;8.03;;;3.03;;
9745;SDS011;4912;50.836;12.958;2023-01-28T13:43:00;8.30;;;3.20;;
9745;SDS011;4912;50.836;12.958;2023-01-28T13:45:33;7.72;;;3.03;;
9745;SDS011;4912;50.836;12.958;2023-01-28T13:48:12;7.18;;;3.22;;
9745;SDS011;4912;50.836;12.958;2023-01-28T13:50:52;7.57;;;3.57;;
9745;SDS011;4912;50.836;12.958;2023-01-28T13:53:26;10.15;;;4.93;;
9745;SDS011;4912;50.836;12.958;2023-01-28T13:56:16;6.37;;;3.33;;
9745;SDS011;4912;50.836;12.958;2023-01-28T14:01:59;7.17;;;3.90;;
9745;SDS011;4912;50.836;12.958;2023-01-28T14:04:57;8.00;;;3.30;;
9745;SDS011;4912;50.836;12.958;2023-01-28T14:08:22;6.90;;;4.03;;
9745;SDS011;4912;50.836;12.958;2023-01-28T14:11:33;8.37;;;3.60;;
9745;SDS011;4912;50.836;12.958;2023-01-28T14:14:46;6.20;;;4.00;;
9745;SDS011;4912;50.836;12.958;2023-01-28T14:17:41;6.47;;;4.23;;
9745;SDS011;4912;50.836;12.958;2023-01-28T14:20:16;7.43;;;3.47;;
9745;SDS011;4912;50.836;12.958;2023-01-28T14:22:54;7.23;;;4.03;;
9745;SDS011;4912;50.836;12.958;2023-01-28T14:25:32;5.67;;;3.27;;
9745;SDS011;4912;50.836;12.958;2023-01-28T14:28:18;7.27;;;3.83;;
9745;SDS011;4912;50.836;12.958;2023-01-28T14:30:59;7.47;;;4.27;;
9745;SDS011;4912;50.836;12.958;2023-01-28T14:33:37;9.43;;;4.50;;
9745;SDS011;4912;50.836;12.958;2023-01-28T14:36:12;7.80;;;4.27;;
9745;SDS011;4912;50.836;12.958;2023-01-28T14:38:43;7.57;;;4.20;;
9745;SDS011;4912;50.836;12.958;2023-01-28T14:41:19;7.60;;;4.60;;
9745;SDS011;4912;50.836;12.958;2023-01-28T14:43:53;9.40;;;4.00;;
9745;SDS011;4912;50.836;12.958;2023-01-28T14:46:33;6.57;;;4.27;;
9745;SDS011;4912;50.836;12.958;2023-01-28T14:49:18;6.13;;;4.10;;
9745;SDS011;4912;50.836;12.958;2023-01-28T14:52:03;8.83;;;5.13;;
9745;SDS011;4912;50.836;12.958;2023-01-28T14:54:53;8.20;;;4.40;;
9745;SDS011;4912;50.836;12.958;2023-01-28T14:57:43;8.23;;;4.23;;
9745;SDS011;4912;50.836;12.958;2023-01-28T15:00:20;8.30;;;4.47;;
9745;SDS011;4912;50.836;12.958;2023-01-28T15:02:55;8.53;;;5.47;;
9745;SDS011;4912;50.836;12.958;2023-01-28T15:05:27;8.27;;;4.43;;
9745;SDS011;4912;50.836;12.958;2023-01-28T15:07:58;9.60;;;4.90;;
9745;SDS011;4912;50.836;12.958;2023-01-28T15:10:29;7.33;;;4.70;;
9745;SDS011;4912;50.836;12.958;2023-01-28T15:13:04;11.07;;;6.30;;
9745;SDS011;4912;50.836;12.958;2023-01-28T15:15:37;8.40;;;4.83;;
9745;SDS011;4912;50.836;12.958;2023-01-28T15:18:14;8.67;;;5.20;;
9745;SDS011;4912;50.836;12.958;2023-01-28T15:20:49;12.90;;;5.80;;
9745;SDS011;4912;50.836;12.958;2023-01-28T15:23:24;10.60;;;5.53;;
9745;SDS011;4912;50.836;12.958;2023-01-28T15:25:57;10.67;;;5.50;;
9745;SDS011;4912;50.836;12.958;2023-01-28T15:28:29;8.57;;;5.28;;
9745;SDS011;4912;50.836;12.958;2023-01-28T15:31:03;10.20;;;5.00;;
9745;SDS011;4912;50.836;12.958;2023-01-28T15:33:36;10.32;;;6.00;;
9745;SDS011;4912;50.836;12.958;2023-01-28T15:36:08;12.50;;;6.13;;
9745;SDS011;4912;50.836;12.958;2023-01-28T15:38:38;11.53;;;6.13;;
9745;SDS011;4912;50.836;12.958;2023-01-28T15:41:09;12.40;;;6.07;;
9745;SDS011;4912;50.836;12.958;2023-01-28T15:43:45;14.00;;;6.67;;
9745;SDS011;4912;50.836;12.958;2023-01-28T15:46:17;10.33;;;6.60;;
9745;SDS011;4912;50.836;12.958;2023-01-28T15:51:27;10.57;;;6.63;;
9745;SDS011;4912;50.836;12.958;2023-01-28T15:54:02;10.33;;;6.13;;
9745;SDS011;4912;50.836;12.958;2023-01-28T15:56:36;10.67;;;6.60;;
9745;SDS011;4912;50.836;12.958;2023-01-28T15:59:09;10.53;;;6.10;;
9745;SDS011;4912;50.836;12.958;2023-01-28T16:01:48;12.05;;;5.35;;
9745;SDS011;4912;50.836;12.958;2023-01-28T16:04:23;9.93;;;6.22;;
9745;SDS011;4912;50.836;12.958;2023-01-28T16:06:56;12.07;;;5.70;;
9745;SDS011;4912;50.836;12.958;2023-01-28T16:09:33;12.33;;;5.27;;
9745;SDS011;4912;50.836;12.958;2023-01-28T16:12:05;9.27;;;5.47;;
9745;SDS011;4912;50.836;12.958;2023-01-28T16:14:39;7.63;;;5.63;;
9745;SDS011;4912;50.836;12.958;2023-01-28T16:17:14;7.90;;;5.33;;
9745;SDS011;4912;50.836;12.958;2023-01-28T16:19:50;8.33;;;5.37;;